Time;durP1;ratioP1;P1;durP2;ratioP2;P2;SDS_P1;SDS_P2;PMS_P1;PMS_P2;Temp;Humidity;BMP_temperature;BMP_pressure;BME280_temperature;BME280_humidity;BME280_pressure;Samples;Min_cycle;Max_cycle;Signal;HPM_P1;HPM_P2
2023/09/12 00:00:05;;;;;;;14.65;8.93;;;;;;;16.20;100.00;95681.53;1030342;28;20026;-75
2023/09/12 00:00:35;;;;;;;13.77;9.63;;;;;;;16.19;100.00;95680.72;1027411;28;20035;-75
2023/09/12 00:01:06;;;;;;;13.15;8.88;;;;;;;16.22;100.00;95676.69;1023132;28;20023;-73
2023/09/12 00:01:39;;;;;;;17.75;9.32;;;;;;;16.20;100.00;95678.88;1027432;28;20027;-74
2023/09/12 00:02:10;;;;;;;14.32;9.02;;;;;;;16.21;100.00;95675.91;1031510;28;20022;-74
2023/09/12 00:02:40;;;;;;;12.98;9.60;;;;;;;16.20;100.00;95677.00;1035587;28;20034;-74
2023/09/12 00:03:11;;;;;;;15.57;10.13;;;;;;;16.21;100.00;95675.91;1031332;28;20125;-74
2023/09/12 00:03:41;;;;;;;13.82;9.27;;;;;;;16.18;100.00;95679.16;1026942;28;20041;-74
2023/09/12 00:04:12;;;;;;;18.70;10.38;;;;;;;16.23;100.00;95671.13;1026965;28;20031;-74
2023/09/12 00:04:42;;;;;;;12.80;9.55;;;;;;;16.22;100.00;95668.75;1031045;28;20496;-73
2023/09/12 00:05:13;;;;;;;12.95;9.57;;;;;;;16.25;100.00;95671.59;1039261;28;20081;-76
2023/09/12 00:05:53;;;;;;;15.38;9.75;;;;;;;16.20;100.00;95663.00;1043245;28;20035;-75
2023/09/12 00:06:23;;;;;;;15.82;9.93;;;;;;;16.23;100.00;95665.81;1034948;28;20406;-74
2023/09/12 00:06:54;;;;;;;13.45;9.38;;;;;;;16.26;100.00;95672.38;1031016;28;20034;-73
2023/09/12 00:07:24;;;;;;;15.02;8.65;;;;;;;16.25;100.00;95668.94;1032472;28;20034;-75
2023/09/12 00:07:55;;;;;;;13.18;9.25;;;;;;;16.24;100.00;95670.03;1031356;28;20030;-76
2023/09/12 00:08:25;;;;;;;13.55;9.40;;;;;;;16.18;100.00;95663.28;1030939;28;20065;-74
2023/09/12 00:08:56;;;;;;;14.90;9.63;;;;;;;16.23;100.00;95670.31;1031152;28;20479;-74
2023/09/12 00:09:27;;;;;;;13.90;9.23;;;;;;;16.21;100.00;95667.97;1031016;28;20065;-73
2023/09/12 00:09:58;;;;;;;16.58;9.50;;;;;;;16.23;100.00;95671.13;1033979;28;20025;-74
2023/09/12 00:10:29;;;;;;;14.75;9.25;;;;;;;16.24;100.00;95670.03;1034944;28;20774;-74
2023/09/12 00:11:03;;;;;;;15.60;9.73;;;;;;;16.18;100.00;95663.28;1031059;28;20033;-74
2023/09/12 00:11:34;;;;;;;13.57;9.15;;;;;;;16.21;100.00;95667.97;1026395;28;20451;-74
2023/09/12 00:12:05;;;;;;;15.02;9.68;;;;;;;16.21;100.00;95675.13;1027748;28;20034;-74
2023/09/12 00:12:35;;;;;;;13.48;9.70;;;;;;;16.23;100.00;95670.31;1031748;28;20470;-75
2023/09/12 00:13:05;;;;;;;13.38;9.30;;;;;;;16.18;100.00;95663.28;1035393;28;20025;-75
2023/09/12 00:13:37;;;;;;;15.63;9.70;;;;;;;16.19;100.00;95669.34;1035223;28;20034;-74
2023/09/12 00:14:08;;;;;;;15.27;9.48;;;;;;;16.18;100.00;95662.50;1031014;28;20108;-75
2023/09/12 00:14:39;;;;;;;14.70;10.65;;;;;;;16.19;100.00;95661.41;1026585;28;20573;-75
2023/09/12 00:15:09;;;;;;;19.88;10.52;;;;;;;16.20;100.00;95677.00;1022925;29;20078;-74
2023/09/12 00:15:40;;;;;;;16.02;10.25;;;;;;;16.20;100.00;95670.94;1026995;28;20492;-74
2023/09/12 00:16:10;;;;;;;19.08;10.55;;;;;;;16.22;100.00;95668.75;1031039;28;20063;-74
2023/09/12 00:16:41;;;;;;;15.07;10.10;;;;;;;16.28;100.00;95672.84;1033811;28;20038;-77
2023/09/12 00:17:11;;;;;;;13.60;9.93;;;;;;;16.26;100.00;95672.38;1030934;28;20031;-74
2023/09/12 00:17:42;;;;;;;16.30;10.65;;;;;;;16.35;100.00;95677.75;1019109;29;20121;-74
2023/09/12 00:18:12;;;;;;;15.88;10.52;;;;;;;16.34;100.00;95670.88;1024511;28;20066;-74
2023/09/12 00:18:43;;;;;;;17.85;11.45;;;;;;;16.34;100.00;95668.22;1022959;28;20042;-74
2023/09/12 00:19:14;;;;;;;15.13;11.07;;;;;;;16.40;100.00;95681.06;1023140;28;20110;-74
2023/09/12 00:19:44;;;;;;;15.98;11.55;;;;;;;16.41;100.00;95676.53;1030431;28;20625;-73
2023/09/12 00:20:15;;;;;;;15.93;10.88;;;;;;;16.45;100.00;95661.59;1034979;28;20030;-73
2023/09/12 00:20:45;;;;;;;18.67;11.23;;;;;;;16.43;100.00;95661.91;1038994;28;20342;-75
2023/09/12 00:21:16;;;;;;;16.40;10.68;;;;;;;16.51;100.00;95673.66;1034946;28;20026;-74
2023/09/12 00:21:46;;;;;;;14.27;10.98;;;;;;;16.52;100.00;95669.91;1030863;28;20018;-74
2023/09/12 00:22:17;;;;;;;15.20;10.45;;;;;;;16.54;100.00;95672.28;1031070;28;20065;-74
2023/09/12 00:22:47;;;;;;;16.45;10.75;;;;;;;16.61;100.00;95676.06;1026978;28;20571;-76
2023/09/12 00:23:18;;;;;;;14.10;9.85;;;;;;;16.63;100.00;95673.09;1028240;28;20027;-74
2023/09/12 00:23:48;;;;;;;17.63;11.07;;;;;;;16.63;100.00;95679.19;1022998;28;20407;-74
2023/09/12 00:24:19;;;;;;;16.73;11.43;;;;;;;16.63;100.00;95667.78;1019121;29;20663;-75
2023/09/12 00:24:49;;;;;;;18.27;10.70;;;;;;;16.55;100.00;95663.22;1019093;29;20501;-74
2023/09/12 00:25:20;;;;;;;19.05;11.98;;;;;;;16.62;100.00;95666.22;1019310;28;20028;-74
2023/09/12 00:25:53;;;;;;;15.90;11.43;;;;;;;16.64;100.00;95675.44;1031337;28;20061;-73
2023/09/12 00:26:24;;;;;;;16.67;10.25;;;;;;;16.61;100.00;95665.47;1035659;28;20204;-74
2023/09/12 00:26:54;;;;;;;16.30;10.70;;;;;;;16.65;100.00;95665.63;1034457;28;20080;-73
2023/09/12 00:27:25;;;;;;;17.70;10.55;;;;;;;16.66;100.00;95667.97;1034937;28;20045;-74
2023/09/12 00:27:55;;;;;;;15.88;10.32;;;;;;;16.61;100.00;95659.38;1035153;28;20407;-74
2023/09/12 00:28:26;;;;;;;12.18;9.93;;;;;;;16.64;100.00;95659.56;1031040;28;20031;-74
2023/09/12 00:28:56;;;;;;;16.67;10.88;;;;;;;16.67;100.00;95668.78;1035047;28;20034;-75
2023/09/12 00:29:27;;;;;;;14.32;9.88;;;;;;;16.65;100.00;95666.41;1038957;28;20033;-74
2023/09/12 00:29:57;;;;;;;13.82;10.20;;;;;;;16.60;100.00;95661.25;1034415;28;20724;-74
2023/09/12 00:30:28;;;;;;;17.58;10.52;;;;;;;16.64;100.00;95664.84;1039185;28;20052;-74
2023/09/12 00:30:58;;;;;;;17.60;11.20;;;;;;;16.65;100.00;95666.41;1039003;28;20029;-74
2023/09/12 00:31:29;;;;;;;16.35;10.20;;;;;;;16.67;100.00;95666.13;1038936;28;20033;-74
2023/09/12 00:31:59;;;;;;;13.68;9.60;;;;;;;16.65;100.00;95663.75;1038872;28;20583;-76
2023/09/12 00:32:30;;;;;;;13.50;10.23;;;;;;;16.65;100.00;95663.75;1034899;28;20029;-74
2023/09/12 00:33:00;;;;;;;15.85;10.25;;;;;;;16.66;100.00;95662.66;1034940;28;20458;-74
2023/09/12 00:33:30;;;;;;;16.55;10.90;;;;;;;16.62;100.00;95659.06;1030569;28;20026;-75
2023/09/12 00:34:01;;;;;;;16.60;10.55;;;;;;;16.66;100.00;95664.53;1035026;28;20041;-74
2023/09/12 00:34:31;;;;;;;15.68;9.88;;;;;;;16.61;100.00;95646.13;1034830;28;20549;-75
2023/09/12 00:35:02;;;;;;;13.50;10.60;;;;;;;16.67;100.00;95655.53;1030834;28;20033;-74
2023/09/12 00:35:32;;;;;;;15.65;10.70;;;;;;;16.68;100.00;95659.72;1030765;28;20030;-74
2023/09/12 00:36:03;;;;;;;15.27;10.52;;;;;;;16.68;100.00;95660.50;1031094;28;20042;-74
2023/09/12 00:36:34;;;;;;;18.20;10.82;;;;;;;16.67;100.00;95656.31;1034925;28;20115;-75
2023/09/12 00:37:04;;;;;;;14.07;10.43;;;;;;;16.70;100.00;95657.56;1029456;28;20030;-74
2023/09/12 00:37:35;;;;;;;14.43;10.45;;;;;;;16.70;100.00;95653.03;1026816;28;20042;-74
2023/09/12 00:38:06;;;;;;;13.57;10.05;;;;;;;16.73;100.00;95656.94;1026875;28;20038;-75
2023/09/12 00:38:37;;;;;;;16.58;10.98;;;;;;;16.69;100.00;95645.38;1031097;28;20479;-74
2023/09/12 00:39:07;;;;;;;15.10;10.57;;;;;;;16.76;100.00;95650.28;1031271;28;20066;-76
2023/09/12 00:39:38;;;;;;;13.48;9.60;;;;;;;16.71;100.00;95640.56;1030851;28;20606;-74
2023/09/12 00:40:08;;;;;;;15.32;9.20;;;;;;;16.68;100.00;95639.31;1026403;28;20103;-74
2023/09/12 00:40:39;;;;;;;17.98;9.57;;;;;;;16.68;100.00;95641.97;1030953;28;20507;-74
2023/09/12 00:41:09;;;;;;;15.75;10.48;;;;;;;16.71;100.00;95641.34;1034935;28;20022;-75
2023/09/12 00:41:40;;;;;;;15.75;10.10;;;;;;;16.77;100.00;95651.84;1034996;28;20032;-75
2023/09/12 00:42:10;;;;;;;15.73;10.52;;;;;;;16.72;100.00;95634.19;1038901;28;20029;-74
2023/09/12 00:42:41;;;;;;;12.98;10.23;;;;;;;16.78;100.00;95642.81;1026988;28;20050;-74
2023/09/12 00:43:11;;;;;;;15.13;9.82;;;;;;;16.81;100.00;95642.22;1035062;28;20037;-74
2023/09/12 00:43:41;;;;;;;14.70;10.07;;;;;;;16.79;100.00;95639.09;1034703;28;20398;-76
2023/09/12 00:44:12;;;;;;;19.85;10.02;;;;;;;16.78;100.00;95635.66;1031054;28;20022;-74
2023/09/12 00:44:42;;;;;;;13.30;9.88;;;;;;;16.78;100.00;95630.34;1030954;28;20546;-73
2023/09/12 00:45:13;;;;;;;14.25;10.32;;;;;;;16.84;100.00;95636.31;1030958;28;20089;-74
2023/09/12 00:45:43;;;;;;;16.92;10.13;;;;;;;16.84;100.00;95633.66;1034151;28;20419;-74
2023/09/12 00:46:17;;;;;;;12.55;9.70;;;;;;;16.85;100.00;95629.91;1034375;28;20033;-75
2023/09/12 00:46:48;;;;;;;14.38;9.70;;;;;;;16.72;100.00;95613.00;1030337;28;20019;-75
2023/09/12 00:47:19;;;;;;;15.60;10.35;;;;;;;16.84;100.00;95631.78;1022765;28;20480;-74
2023/09/12 00:47:49;;;;;;;12.18;9.73;;;;;;;16.78;100.00;95622.41;1026599;28;20105;-74
2023/09/12 00:48:20;;;;;;;13.90;9.98;;;;;;;16.82;100.00;95628.66;1030972;28;20026;-74
2023/09/12 00:48:50;;;;;;;13.43;9.52;;;;;;;16.82;100.00;95633.19;1022738;28;20034;-74
2023/09/12 00:49:22;;;;;;;12.68;9.95;;;;;;;16.76;100.00;95621.13;1030568;28;20018;-74
2023/09/12 00:49:52;;;;;;;14.15;9.45;;;;;;;16.75;100.00;95624.88;1034132;28;20422;-74
2023/09/12 00:50:23;;;;;;;13.18;9.35;;;;;;;16.79;100.00;95631.13;1030650;28;20018;-74
2023/09/12 00:50:54;;;;;;;15.65;9.80;;;;;;;16.76;100.00;95624.56;1031038;28;20026;-75
2023/09/12 00:51:24;;;;;;;14.77;9.77;;;;;;;16.80;100.00;95625.53;1034782;28;20081;-73
2023/09/12 00:51:54;;;;;;;16.80;9.98;;;;;;;16.79;100.00;95628.47;1026727;28;20014;-76
2023/09/12 00:52:25;;;;;;;14.18;9.90;;;;;;;16.72;100.00;95620.94;1026669;28;20417;-74
2023/09/12 00:52:56;;;;;;;14.10;10.25;;;;;;;16.78;100.00;95632.22;1022987;28;20122;-74
2023/09/12 00:53:26;;;;;;;15.43;10.32;;;;;;;16.78;100.00;95626.94;1022793;29;20020;-75
2023/09/12 00:53:57;;;;;;;13.50;9.18;;;;;;;16.78;100.00;95633.00;1026663;28;20021;-74
2023/09/12 00:54:28;;;;;;;16.23;9.88;;;;;;;16.77;100.00;95620.03;1026709;28;20026;-75
2023/09/12 00:54:58;;;;;;;17.55;10.13;;;;;;;16.73;100.00;95615.34;1030864;28;20049;-74
2023/09/12 00:55:29;;;;;;;17.88;10.18;;;;;;;16.73;100.00;95619.84;1034746;28;20064;-74
2023/09/12 00:55:59;;;;;;;17.10;9.82;;;;;;;16.73;100.00;95622.50;1030720;28;20037;-74
2023/09/12 00:56:30;;;;;;;14.05;9.35;;;;;;;16.72;100.00;95624.38;1026727;28;20099;-75
2023/09/12 00:57:00;;;;;;;16.40;10.02;;;;;;;16.71;100.00;95622.03;1026951;28;20038;-74
2023/09/12 00:57:31;;;;;;;12.45;9.52;;;;;;;16.70;100.00;95623.91;1029686;28;20025;-74
2023/09/12 00:58:02;;;;;;;17.70;9.55;;;;;;;16.70;100.00;95615.19;1034137;28;20527;-74
2023/09/12 00:58:33;;;;;;;13.45;9.70;;;;;;;16.67;100.00;95619.22;1038867;28;20040;-74
2023/09/12 00:59:04;;;;;;;14.55;8.95;;;;;;;16.65;100.00;95613.41;1038799;28;20017;-75
2023/09/12 00:59:34;;;;;;;16.08;9.80;;;;;;;16.62;100.00;95608.72;1036538;28;20035;-74
2023/09/12 01:00:10;;;;;;;15.52;9.70;;;;;;;16.61;100.00;95609.81;1026065;28;20035;-74
2023/09/12 01:00:41;;;;;;;13.32;9.23;;;;;;;16.57;100.00;95603.56;1030955;28;20446;-73
2023/09/12 01:01:12;;;;;;;14.95;9.80;;;;;;;16.59;100.00;95608.56;1026604;28;20025;-75
2023/09/12 01:01:42;;;;;;;11.15;8.55;;;;;;;16.60;100.00;95618.88;1022694;28;20023;-73
2023/09/12 01:02:13;;;;;;;15.15;9.77;;;;;;;16.58;100.00;95618.38;1030692;28;20419;-73
2023/09/12 01:02:45;;;;;;;16.00;9.00;;;;;;;16.58;100.00;95612.28;1034505;28;20622;-73
2023/09/12 01:03:15;;;;;;;15.13;10.40;;;;;;;16.55;100.00;95613.69;1042973;28;20112;-74
2023/09/12 01:03:46;;;;;;;13.95;9.75;;;;;;;16.56;100.00;95612.59;1022850;29;20016;-75
2023/09/12 01:04:16;;;;;;;14.68;9.77;;;;;;;16.57;100.00;95613.38;1026889;28;20030;-74
2023/09/12 01:04:47;;;;;;;11.65;8.65;;;;;;;16.56;100.00;95609.16;1030659;28;20590;-73
2023/09/12 01:05:17;;;;;;;14.77;9.15;;;;;;;16.54;100.00;95604.19;1030998;28;20114;-74
2023/09/12 01:05:48;;;;;;;13.70;9.65;;;;;;;16.55;100.00;95616.31;1026744;28;20403;-74
2023/09/12 01:06:19;;;;;;;13.32;9.15;;;;;;;16.46;100.00;95592.47;1020313;28;20039;-75
2023/09/12 01:06:50;;;;;;;12.48;8.93;;;;;;;16.51;100.00;95596.84;1026681;28;20432;-74
2023/09/12 01:07:20;;;;;;;12.75;9.15;;;;;;;16.57;100.00;95614.16;1030900;28;20026;-76
2023/09/12 01:07:51;;;;;;;12.52;9.00;;;;;;;16.57;100.00;95605.44;1026862;28;20046;-74
2023/09/12 01:08:21;;;;;;;17.25;9.23;;;;;;;16.57;100.00;95616.03;1030785;28;20030;-74
2023/09/12 01:08:52;;;;;;;15.23;9.45;;;;;;;16.56;100.00;95612.59;1030758;28;20482;-74
2023/09/12 01:09:23;;;;;;;13.13;9.45;;;;;;;16.55;100.00;95613.69;1030862;28;20019;-75
2023/09/12 01:09:53;;;;;;;11.90;9.40;;;;;;;16.51;100.00;95607.44;1033946;28;20026;-73
2023/09/12 01:10:24;;;;;;;10.98;8.73;;;;;;;16.51;100.00;95612.72;1030895;28;20041;-74
2023/09/12 01:10:55;;;;;;;16.48;9.32;;;;;;;16.52;100.00;95614.28;1026517;28;20500;-75
2023/09/12 01:11:26;;;;;;;14.80;9.77;;;;;;;16.48;100.00;95613.34;1024520;28;20027;-74
2023/09/12 01:11:57;;;;;;;15.10;9.52;;;;;;;16.46;100.00;95612.84;1031098;28;20026;-74
2023/09/12 01:12:27;;;;;;;13.27;9.02;;;;;;;16.45;100.00;95616.59;1035246;28;20507;-75
2023/09/12 01:12:58;;;;;;;12.98;9.00;;;;;;;16.43;100.00;95616.91;1034859;28;20025;-74
2023/09/12 01:13:28;;;;;;;15.38;9.30;;;;;;;16.42;100.00;95614.53;1030812;28;20404;-74
2023/09/12 01:13:59;;;;;;;13.68;9.65;;;;;;;16.42;100.00;95614.53;1022631;28;20767;-74
2023/09/12 01:14:30;;;;;;;12.73;9.68;;;;;;;16.40;100.00;95612.19;1022869;28;20028;-74
2023/09/12 01:15:00;;;;;;;13.07;9.27;;;;;;;16.44;100.00;95615.03;1025827;28;20180;-76
2023/09/12 01:15:31;;;;;;;16.15;9.80;;;;;;;16.45;100.00;95616.59;1030990;28;20062;-74
2023/09/12 01:16:01;;;;;;;17.10;9.25;;;;;;;16.40;100.00;95611.44;1030445;28;20018;-73
2023/09/12 01:16:32;;;;;;;15.40;9.50;;;;;;;16.47;100.00;95622.38;1028381;28;20661;-74
2023/09/12 01:17:02;;;;;;;12.02;8.77;;;;;;;16.46;100.00;95626.88;1034615;28;20030;-73
2023/09/12 01:17:33;;;;;;;13.85;9.68;;;;;;;16.50;100.00;95614.59;1030712;28;20018;-73
2023/09/12 01:18:03;;;;;;;15.02;9.27;;;;;;;16.51;100.00;95615.38;1030021;28;20049;-75
2023/09/12 01:18:34;;;;;;;13.38;9.35;;;;;;;16.53;100.00;95615.84;1026733;28;20035;-73
2023/09/12 01:19:04;;;;;;;15.18;9.07;;;;;;;16.53;100.00;95620.34;1030630;28;20065;-73
2023/09/12 01:19:35;;;;;;;13.60;8.95;;;;;;;16.52;100.00;95619.59;1026743;28;20050;-74
2023/09/12 01:20:06;;;;;;;12.43;9.20;;;;;;;16.51;100.00;95620.66;1034005;28;20552;-74
2023/09/12 01:20:36;;;;;;;12.88;9.27;;;;;;;16.47;100.00;95611.78;1034784;28;20029;-73
2023/09/12 01:21:42;;;;;;;15.48;9.23;;;;;;;16.49;100.00;95620.19;1030500;28;20057;-74
2023/09/12 01:22:27;;;;;;;13.30;8.95;;;;;;;16.41;100.00;95608.47;1019761;28;21009;-75
2023/09/12 01:23:19;;;;;;;16.23;9.60;;;;;;;16.43;100.00;95618.75;1025041;28;20538;-74
2023/09/12 01:24:25;;;;;;;13.35;9.30;;;;;;;16.42;100.00;95627.78;1027224;28;20029;-74
2023/09/12 01:25:23;;;;;;;15.95;9.00;;;;;;;16.36;100.00;95618.38;1041821;28;20060;-74
2023/09/12 01:26:42;;;;;;;13.65;8.30;;;;;;;16.34;100.00;95618.69;1038677;28;20025;-75
2023/09/12 01:27:18;;;;;;;15.63;9.00;;;;;;;16.27;100.00;95618.34;1034283;28;20458;-74
2023/09/12 01:27:51;;;;;;;12.77;8.93;;;;;;;16.22;100.00;95616.59;1037565;28;20025;-74
2023/09/12 01:28:23;;;;;;;14.15;8.57;;;;;;;16.24;100.00;95618.94;1035519;28;20041;-74
2023/09/12 01:28:54;;;;;;;13.13;9.40;;;;;;;16.22;100.00;95616.59;1035826;28;20048;-74
2023/09/12 01:29:25;;;;;;;11.60;8.68;;;;;;;16.20;100.00;95618.75;1034279;28;20057;-74
2023/09/12 01:30:01;;;;;;;12.40;9.10;;;;;;;16.15;100.00;95610.94;1029767;28;20033;-77
2023/09/12 01:30:32;;;;;;;15.65;9.63;;;;;;;16.17;100.00;95616.72;1022429;29;20082;-74
2023/09/12 01:31:02;;;;;;;11.82;8.30;;;;;;;16.12;100.00;95611.53;1023133;28;20771;-73
2023/09/12 01:31:34;;;;;;;16.05;10.07;;;;;;;16.09;100.00;95614.78;1022161;29;20600;-75
2023/09/12 01:32:04;;;;;;;14.80;10.15;;;;;;;16.07;100.00;95614.31;1022260;28;20090;-73
2023/09/12 01:32:35;;;;;;;18.20;10.07;;;;;;;16.12;100.00;95622.13;1026327;28;20089;-74
2023/09/12 01:33:05;;;;;;;15.40;9.77;;;;;;;16.11;100.00;95620.56;1028597;28;20539;-74
2023/09/12 01:33:36;;;;;;;12.90;8.60;;;;;;;16.10;100.00;95620.88;1028687;28;20103;-74
2023/09/12 01:34:10;;;;;;;16.67;9.13;;;;;;;16.03;100.00;95614.13;1034762;28;20766;-76
2023/09/12 01:34:41;;;;;;;12.20;8.70;;;;;;;16.06;100.00;95611.94;1031701;28;20030;-74
2023/09/12 01:35:11;;;;;;;12.43;9.10;;;;;;;16.06;100.00;95623.31;1030480;28;20056;-75
2023/09/12 01:35:43;;;;;;;13.30;9.18;;;;;;;16.06;100.00;95622.53;1030563;28;20038;-74
2023/09/12 01:36:13;;;;;;;14.30;9.65;;;;;;;16.03;100.00;95629.22;1026865;28;20515;-74
2023/09/12 01:36:44;;;;;;;13.23;9.45;;;;;;;16.04;100.00;95625.50;1030724;28;20030;-76
2023/09/12 01:37:14;;;;;;;18.65;9.50;;;;;;;16.01;100.00;95626.09;1034767;28;20097;-74
2023/09/12 01:37:45;;;;;;;12.23;8.60;;;;;;;16.00;100.00;95627.19;1030859;28;20022;-75
2023/09/12 01:38:15;;;;;;;12.75;9.68;;;;;;;15.94;100.00;95617.78;1034707;28;20041;-75
2023/09/12 01:38:46;;;;;;;13.40;9.13;;;;;;;15.97;100.00;95619.84;1033201;28;20034;-75
2023/09/12 01:39:16;;;;;;;12.65;8.90;;;;;;;15.87;100.00;95623.50;1038805;28;20063;-74
2023/09/12 01:39:47;;;;;;;14.63;9.75;;;;;;;15.92;100.00;95622.59;1038234;28;20026;-76
2023/09/12 01:40:17;;;;;;;20.17;11.32;;;;;;;15.91;100.00;95626.31;1034364;28;20121;-75
2023/09/12 01:40:49;;;;;;;13.75;8.68;;;;;;;15.90;100.00;95628.19;1026587;28;20031;-73
2023/09/12 01:41:19;;;;;;;13.10;9.50;;;;;;;15.90;100.00;95632.69;1030437;28;20033;-74
2023/09/12 01:41:50;;;;;;;16.58;10.60;;;;;;;15.93;100.00;95635.53;1030401;28;20073;-75
2023/09/12 01:42:21;;;;;;;14.65;9.43;;;;;;;15.98;100.00;95638.06;1026664;28;20023;-74
2023/09/12 01:42:51;;;;;;;16.70;9.85;;;;;;;15.95;100.00;95637.88;1022599;29;20122;-76
2023/09/12 01:43:23;;;;;;;14.85;9.02;;;;;;;15.86;100.00;95623.78;1026560;28;20113;-75
2023/09/12 01:43:53;;;;;;;14.15;9.57;;;;;;;15.93;100.00;95640.81;1026374;28;20038;-74
2023/09/12 01:44:24;;;;;;;19.10;9.75;;;;;;;15.90;100.00;95633.47;1022561;29;20035;-73
2023/09/12 01:44:55;;;;;;;15.15;9.02;;;;;;;15.90;100.00;95641.41;1038728;28;20209;-74
2023/09/12 01:45:26;;;;;;;14.68;9.32;;;;;;;15.88;100.00;95637.50;1032939;28;20394;-74
2023/09/12 01:45:58;;;;;;;13.27;9.55;;;;;;;15.84;100.00;95632.03;1030575;28;20026;-74
2023/09/12 01:46:28;;;;;;;11.30;8.63;;;;;;;15.78;100.00;95630.56;1031361;28;20048;-73
2023/09/12 01:47:02;;;;;;;13.57;9.10;;;;;;;15.84;100.00;95639.19;1034738;28;20025;-74
2023/09/12 01:47:33;;;;;;;17.48;9.52;;;;;;;15.83;100.00;95637.59;1026638;28;20035;-76
2023/09/12 01:48:04;;;;;;;15.95;10.43;;;;;;;15.80;100.00;95639.00;1030571;28;20026;-75
2023/09/12 01:48:35;;;;;;;12.52;9.05;;;;;;;15.78;100.00;95639.28;1026686;28;20026;-74
2023/09/12 01:49:06;;;;;;;13.57;9.10;;;;;;;15.77;100.00;95637.72;1026509;28;20031;-74
2023/09/12 01:49:37;;;;;;;12.40;8.50;;;;;;;15.74;100.00;95633.03;1026721;28;20023;-74
2023/09/12 01:50:08;;;;;;;12.90;8.75;;;;;;;15.74;100.00;95638.31;1030077;28;20582;-73
2023/09/12 01:50:39;;;;;;;13.50;9.07;;;;;;;15.67;100.00;95630.00;1029116;28;20085;-74
2023/09/12 01:51:09;;;;;;;15.82;8.50;;;;;;;15.70;100.00;95642.63;1030600;28;20466;-74
2023/09/12 01:51:40;;;;;;;15.80;8.52;;;;;;;15.67;100.00;95645.88;1030724;28;20030;-74
2023/09/12 01:52:10;;;;;;;11.93;8.10;;;;;;;15.63;100.00;95636.94;1026503;28;20089;-74
2023/09/12 01:52:41;;;;;;;14.85;10.15;;;;;;;15.66;100.00;95641.69;1022530;28;20420;-73
2023/09/12 01:53:11;;;;;;;12.85;8.73;;;;;;;15.65;100.00;95644.56;1022625;28;20067;-75
2023/09/12 01:53:42;;;;;;;13.25;8.27;;;;;;;15.63;100.00;95644.09;1026651;28;20026;-74
2023/09/12 01:54:12;;;;;;;16.80;9.10;;;;;;;15.59;100.00;95641.25;1030422;28;20037;-73
2023/09/12 01:54:43;;;;;;;11.30;7.85;;;;;;;15.59;100.00;95641.25;1030493;28;20097;-75
2023/09/12 01:55:13;;;;;;;13.45;8.90;;;;;;;15.60;100.00;95642.81;1026626;28;20396;-76
2023/09/12 01:55:44;;;;;;;14.80;8.70;;;;;;;15.60;100.00;95647.34;1034521;28;20022;-73
2023/09/12 01:56:14;;;;;;;13.70;8.75;;;;;;;15.53;100.00;95637.16;1030589;28;20018;-73
2023/09/12 01:56:45;;;;;;;20.23;9.73;;;;;;;15.54;100.00;95639.50;1034618;28;20025;-74
2023/09/12 01:57:15;;;;;;;12.88;9.40;;;;;;;15.59;100.00;95651.03;1034270;28;20014;-75
2023/09/12 01:57:47;;;;;;;12.45;8.90;;;;;;;15.52;100.00;95639.00;1029358;28;20479;-74
2023/09/12 01:58:17;;;;;;;14.73;9.40;;;;;;;15.59;100.00;95657.09;1026663;28;20019;-74
2023/09/12 01:58:48;;;;;;;11.27;8.30;;;;;;;15.60;100.00;95652.63;1030442;28;20026;-73
2023/09/12 01:59:19;;;;;;;13.73;9.25;;;;;;;15.58;100.00;95647.63;1030516;28;20027;-73
2023/09/12 01:59:49;;;;;;;16.25;9.57;;;;;;;15.58;100.00;95644.97;1030066;28;20574;-75
2023/09/12 02:00:20;;;;;;;15.13;9.57;;;;;;;15.64;100.00;95649.09;1026453;28;20038;-75
2023/09/12 02:00:50;;;;;;;15.30;9.45;;;;;;;15.70;100.00;95658.50;1030490;28;20518;-74
2023/09/12 02:01:21;;;;;;;17.48;9.90;;;;;;;15.71;100.00;95660.06;1025175;28;20564;-74
2023/09/12 02:01:51;;;;;;;14.75;8.95;;;;;;;15.56;100.00;95631.28;1022582;29;20046;-75
2023/09/12 02:02:22;;;;;;;13.23;9.77;;;;;;;15.72;100.00;95651.03;1026588;28;20400;-75
2023/09/12 02:02:55;;;;;;;13.13;9.40;;;;;;;15.70;100.00;95650.56;1035316;28;20026;-74
2023/09/12 02:03:25;;;;;;;16.90;8.98;;;;;;;15.73;100.00;95657.91;1034666;28;20083;-75
2023/09/12 02:03:56;;;;;;;12.52;9.15;;;;;;;15.74;100.00;95653.41;1026753;28;20030;-75
2023/09/12 02:04:26;;;;;;;13.55;8.95;;;;;;;15.73;100.00;95652.63;1027044;28;20039;-74
2023/09/12 02:05:19;;;;;;;11.98;8.77;;;;;;;15.76;100.00;95662.63;1026633;28;20760;-74
2023/09/12 02:05:50;;;;;;;13.07;8.73;;;;;;;15.75;100.00;95650.44;1029634;28;20045;-75
2023/09/12 02:06:20;;;;;;;12.57;9.20;;;;;;;15.77;100.00;95653.59;1026439;28;20031;-73
2023/09/12 02:06:51;;;;;;;11.82;8.48;;;;;;;15.66;100.00;95644.31;1034592;28;20051;-74
2023/09/12 02:07:22;;;;;;;13.55;8.95;;;;;;;15.77;100.00;95658.88;1031491;28;20034;-74
2023/09/12 02:07:52;;;;;;;14.82;9.85;;;;;;;15.78;100.00;95662.31;1030269;28;20081;-73
2023/09/12 02:08:23;;;;;;;12.43;8.82;;;;;;;15.77;100.00;95660.75;1022701;28;20027;-74
2023/09/12 02:08:53;;;;;;;15.73;9.55;;;;;;;15.76;100.00;95657.31;1022882;28;20481;-74
2023/09/12 02:09:24;;;;;;;11.88;8.82;;;;;;;15.76;100.00;95654.69;1030648;28;20030;-74
2023/09/12 02:09:54;;;;;;;16.17;8.93;;;;;;;15.76;100.00;95654.69;1037983;28;20318;-73
2023/09/12 02:10:25;;;;;;;15.52;8.70;;;;;;;15.76;100.00;95654.69;1042938;28;20502;-75
2023/09/12 02:10:55;;;;;;;14.43;8.73;;;;;;;15.74;100.00;95654.19;1034515;28;20077;-74
2023/09/12 02:11:26;;;;;;;14.27;9.35;;;;;;;15.70;100.00;95644.50;1036021;28;20100;-74
2023/09/12 02:11:57;;;;;;;11.63;8.80;;;;;;;15.72;100.00;95651.03;1038632;28;20029;-74
2023/09/12 02:12:27;;;;;;;11.63;8.40;;;;;;;15.75;100.00;95661.03;1034964;28;20406;-74
2023/09/12 02:12:58;;;;;;;13.20;9.13;;;;;;;15.69;100.00;95649.03;1038250;28;20097;-75
2023/09/12 02:13:28;;;;;;;14.80;9.20;;;;;;;15.76;100.00;95657.31;1030516;28;20054;-75
2023/09/12 02:13:58;;;;;;;15.40;9.60;;;;;;;15.76;100.00;95657.31;1030969;28;20026;-74
2023/09/12 02:14:29;;;;;;;14.68;9.07;;;;;;;15.74;100.00;95654.19;1034653;28;20878;-75
2023/09/12 02:14:59;;;;;;;12.43;8.95;;;;;;;15.73;100.00;95649.97;1037800;28;20026;-73
2023/09/12 02:15:30;;;;;;;12.68;8.90;;;;;;;15.74;100.00;95654.19;1038572;28;20036;-74
2023/09/12 02:16:01;;;;;;;13.38;9.32;;;;;;;15.71;100.00;95657.41;1034583;28;20029;-73
2023/09/12 02:16:31;;;;;;;12.68;8.77;;;;;;;15.72;100.00;95655.56;1032042;28;20446;-75
2023/09/12 02:17:02;;;;;;;15.18;9.18;;;;;;;15.73;100.00;95659.78;1030756;28;20081;-73
2023/09/12 02:17:32;;;;;;;15.60;9.25;;;;;;;15.70;100.00;95661.16;1034690;28;20121;-74
2023/09/12 02:18:03;;;;;;;11.80;8.50;;;;;;;15.67;100.00;95648.53;1030446;28;20034;-74
2023/09/12 02:18:34;;;;;;;15.15;9.55;;;;;;;15.67;100.00;95653.81;1026693;28;20411;-74
2023/09/12 02:19:05;;;;;;;12.32;8.80;;;;;;;15.69;100.00;95662.25;1022717;29;20027;-74
2023/09/12 02:19:36;;;;;;;17.10;9.57;;;;;;;15.67;100.00;95658.31;1029294;28;20031;-75
2023/09/12 02:20:07;;;;;;;12.25;9.02;;;;;;;15.69;100.00;95658.78;1033724;28;20056;-74
2023/09/12 02:20:39;;;;;;;13.27;9.38;;;;;;;15.65;100.00;95655.16;1034738;28;20038;-73
2023/09/12 02:21:10;;;;;;;13.68;8.85;;;;;;;15.70;100.00;95658.50;1022260;28;20027;-75
2023/09/12 02:21:41;;;;;;;15.25;9.20;;;;;;;15.70;100.00;95658.50;1024797;28;20515;-73
2023/09/12 02:22:12;;;;;;;16.63;9.07;;;;;;;15.70;100.00;95658.50;1030243;28;20038;-75
2023/09/12 02:22:42;;;;;;;11.82;9.23;;;;;;;15.70;100.00;95650.56;1030043;28;20253;-74
2023/09/12 02:23:13;;;;;;;15.18;9.38;;;;;;;15.71;100.00;95662.72;1026980;28;20455;-73
2023/09/12 02:23:43;;;;;;;13.45;9.10;;;;;;;15.69;100.00;95650.84;1026945;28;20034;-73
2023/09/12 02:24:14;;;;;;;14.07;9.25;;;;;;;15.71;100.00;95657.41;1027036;28;20094;-74